createdAt,value
2018-08-30T00:02:09.797Z,8.47
2018-08-30T00:04:38.722Z,8.83
2018-08-30T00:07:07.602Z,8.47
2018-08-30T00:09:36.374Z,7.80
2018-08-30T00:12:05.576Z,7.80
2018-08-30T00:14:34.623Z,8.27
2018-08-30T00:17:03.549Z,7.33
2018-08-30T00:19:44.786Z,8.10
2018-08-30T00:22:13.718Z,7.53
2018-08-30T00:24:42.382Z,8.13
2018-08-30T00:27:11.346Z,7.53
2018-08-30T00:29:40.125Z,9.37
2018-08-30T00:32:08.830Z,9.77
2018-08-30T00:34:37.646Z,12.03
2018-08-30T00:37:06.317Z,11.90
2018-08-30T00:39:35.142Z,11.13
2018-08-30T00:42:03.874Z,10.80
2018-08-30T00:44:32.638Z,10.53
2018-08-30T00:47:01.505Z,8.37
2018-08-30T00:49:30.369Z,8.23
2018-08-30T00:51:59.102Z,8.20
2018-08-30T00:54:27.906Z,10.90
2018-08-30T00:56:56.641Z,12.50
2018-08-30T00:59:25.509Z,14.27
2018-08-30T01:01:54.239Z,15.67
2018-08-30T01:04:22.988Z,16.80
2018-08-30T01:06:51.962Z,18.43
2018-08-30T01:09:20.646Z,18.80
2018-08-30T01:11:49.540Z,18.23
2018-08-30T01:14:18.306Z,19.50
2018-08-30T01:16:47.321Z,19.30
2018-08-30T01:19:16.203Z,19.30
2018-08-30T01:21:44.981Z,19.50
2018-08-30T01:24:13.739Z,19.87
2018-08-30T01:26:42.557Z,20.10
2018-08-30T01:29:11.391Z,20.37
2018-08-30T01:31:40.153Z,19.33
2018-08-30T01:34:11.658Z,19.03
2018-08-30T01:36:41.754Z,18.00
2018-08-30T01:39:10.918Z,17.97
2018-08-30T01:41:40.354Z,18.53
2018-08-30T01:44:09.128Z,17.27
2018-08-30T01:46:38.106Z,15.80
2018-08-30T01:49:06.890Z,16.17
2018-08-30T01:51:35.714Z,15.60
2018-08-30T01:54:04.462Z,14.70
2018-08-30T01:56:33.197Z,14.57
2018-08-30T01:59:02.012Z,13.03
2018-08-30T02:01:30.959Z,13.60
2018-08-30T02:03:59.671Z,10.40
2018-08-30T02:06:28.407Z,10.77
2018-08-30T02:08:57.177Z,9.93
2018-08-30T02:11:26.093Z,9.17
2018-08-30T02:13:54.824Z,7.50
2018-08-30T02:16:23.644Z,6.27
2018-08-30T02:18:52.462Z,4.90
2018-08-30T02:21:21.462Z,5.77
2018-08-30T02:23:50.333Z,6.40
2018-08-30T02:26:19.121Z,5.83
2018-08-30T02:28:47.871Z,5.20
2018-08-30T02:31:16.791Z,5.60
2018-08-30T02:33:45.497Z,5.07
2018-08-30T02:36:14.282Z,4.67
2018-08-30T02:38:42.957Z,4.93
2018-08-30T02:41:11.630Z,4.90
2018-08-30T02:43:40.506Z,5.53
2018-08-30T02:46:09.365Z,5.40
2018-08-30T02:48:38.165Z,5.33
2018-08-30T02:51:06.838Z,5.13
2018-08-30T02:53:35.707Z,5.27
2018-08-30T02:56:04.602Z,6.03
2018-08-30T02:58:33.498Z,4.87
2018-08-30T03:01:02.303Z,5.47
2018-08-30T03:03:31.237Z,5.53
2018-08-30T03:06:00.027Z,6.13
2018-08-30T03:08:28.755Z,5.83
2018-08-30T03:10:57.466Z,5.60
2018-08-30T03:13:27.063Z,5.63
2018-08-30T03:15:55.797Z,5.17
2018-08-30T03:18:24.529Z,5.63
2018-08-30T03:20:53.558Z,5.10
2018-08-30T03:23:22.351Z,5.53
2018-08-30T03:25:51.493Z,5.77
2018-08-30T03:28:20.253Z,5.37
2018-08-30T03:30:49.109Z,6.37
2018-08-30T03:33:17.861Z,6.20
2018-08-30T03:35:46.841Z,5.93
2018-08-30T03:38:15.626Z,6.40
2018-08-30T03:40:44.335Z,6.17
2018-08-30T03:43:13.654Z,6.07
2018-08-30T03:45:42.430Z,6.20
2018-08-30T03:48:11.197Z,5.83
2018-08-30T03:50:40.149Z,6.10
2018-08-30T03:53:08.822Z,5.83
2018-08-30T03:55:37.542Z,5.70
2018-08-30T03:58:06.373Z,5.77
2018-08-30T04:00:35.058Z,5.27
2018-08-30T04:03:03.786Z,5.00
2018-08-30T04:05:32.542Z,5.40
2018-08-30T04:08:01.281Z,4.63
2018-08-30T04:10:30.019Z,5.07
2018-08-30T04:12:58.793Z,4.40
2018-08-30T04:15:27.543Z,4.53
2018-08-30T04:17:56.340Z,4.37
2018-08-30T04:20:25.194Z,4.03
2018-08-30T04:22:54.102Z,4.30
2018-08-30T04:25:22.893Z,3.50
2018-08-30T04:27:51.714Z,3.17
2018-08-30T04:30:20.817Z,2.87
2018-08-30T04:32:49.626Z,2.90
2018-08-30T04:35:18.598Z,2.77
2018-08-30T04:37:47.455Z,2.80
2018-08-30T04:40:16.209Z,2.83
2018-08-30T04:42:44.944Z,3.30
2018-08-30T04:45:13.646Z,2.77
2018-08-30T04:47:42.446Z,2.20
2018-08-30T04:50:11.402Z,2.70
2018-08-30T04:52:40.106Z,2.37
2018-08-30T04:55:08.865Z,2.27
2018-08-30T04:57:37.673Z,2.27
2018-08-30T05:00:06.665Z,2.10
2018-08-30T05:02:35.398Z,1.80
2018-08-30T05:05:04.201Z,2.00
2018-08-30T05:07:32.936Z,1.87
2018-08-30T05:10:01.797Z,1.87
2018-08-30T05:12:30.538Z,1.90
2018-08-30T05:14:59.318Z,1.73
2018-08-30T05:17:28.165Z,2.10
2018-08-30T05:19:56.906Z,2.33
2018-08-30T05:22:25.934Z,2.30
2018-08-30T05:24:54.775Z,2.20
2018-08-30T05:27:23.593Z,1.80
2018-08-30T05:29:52.411Z,2.13
2018-08-30T05:32:21.177Z,2.00
2018-08-30T05:34:49.997Z,2.20
2018-08-30T05:37:18.756Z,2.20
2018-08-30T05:42:39.126Z,2.87
2018-08-30T05:45:07.827Z,3.00
2018-08-30T05:47:36.578Z,3.17
2018-08-30T05:50:05.940Z,3.60
2018-08-30T05:52:34.706Z,3.70
2018-08-30T05:55:03.615Z,4.10
2018-08-30T05:57:32.445Z,4.03
2018-08-30T06:00:01.510Z,4.00
2018-08-30T06:02:30.329Z,4.40
2018-08-30T06:04:59.588Z,4.53
2018-08-30T06:07:28.407Z,5.37
2018-08-30T06:09:57.180Z,6.13
2018-08-30T06:12:26.198Z,6.27
2018-08-30T06:14:55.653Z,6.00
2018-08-30T06:17:24.499Z,6.67
2018-08-30T06:19:53.261Z,6.53
2018-08-30T06:22:22.250Z,7.03
2018-08-30T06:24:51.034Z,7.03
2018-08-30T06:27:19.831Z,7.10
2018-08-30T06:29:48.645Z,7.80
2018-08-30T06:32:17.328Z,7.60
2018-08-30T06:34:46.215Z,7.40
2018-08-30T06:37:14.986Z,7.27
2018-08-30T06:39:43.713Z,7.47
2018-08-30T06:42:12.536Z,7.37
2018-08-30T06:44:41.244Z,7.80
2018-08-30T06:47:10.083Z,8.10
2018-08-30T06:49:38.802Z,7.63
2018-08-30T06:52:07.658Z,8.60
2018-08-30T06:54:36.430Z,9.00
2018-08-30T06:57:05.270Z,9.30
2018-08-30T06:59:34.145Z,9.20
2018-08-30T07:02:03.061Z,9.17
2018-08-30T07:04:31.833Z,9.03
2018-08-30T07:07:00.533Z,9.50
2018-08-30T07:09:29.294Z,9.83
2018-08-30T07:11:59.282Z,8.33
2018-08-30T07:14:28.250Z,9.60
2018-08-30T07:17:04.828Z,8.70
2018-08-30T07:19:33.925Z,10.30
2018-08-30T07:22:04.765Z,11.43
2018-08-30T07:24:51.023Z,10.23
2018-08-30T07:27:19.834Z,11.10
2018-08-30T07:29:48.638Z,10.53
2018-08-30T07:32:17.437Z,10.83
2018-08-30T07:34:46.332Z,11.23
2018-08-30T07:37:15.010Z,10.87
2018-08-30T07:39:43.880Z,10.43
2018-08-30T07:42:12.754Z,10.57
2018-08-30T07:44:41.458Z,10.60
2018-08-30T07:47:10.350Z,10.97
2018-08-30T07:49:39.253Z,12.47
2018-08-30T07:52:08.127Z,12.10
2018-08-30T07:54:37.007Z,12.13
2018-08-30T07:57:16.052Z,11.73
2018-08-30T07:59:44.756Z,11.03
2018-08-30T08:02:13.581Z,11.57
2018-08-30T08:04:43.700Z,11.37
2018-08-30T08:07:13.813Z,11.30
2018-08-30T08:09:42.543Z,11.30
2018-08-30T08:12:11.304Z,11.37
2018-08-30T08:14:40.087Z,11.77
2018-08-30T08:17:17.638Z,12.03
2018-08-30T08:20:07.194Z,10.83
2018-08-30T08:22:36.088Z,10.77
2018-08-30T08:25:04.880Z,11.43
2018-08-30T08:27:33.706Z,10.70
2018-08-30T08:30:03.497Z,10.20
2018-08-30T08:32:32.295Z,11.63
2018-08-30T08:35:01.144Z,11.03
2018-08-30T08:37:29.853Z,11.03
2018-08-30T08:39:58.635Z,11.17
2018-08-30T08:42:27.282Z,10.70
2018-08-30T08:45:02.552Z,11.33
2018-08-30T08:47:31.266Z,10.17
2018-08-30T08:49:59.974Z,10.03
2018-08-30T08:52:28.898Z,10.83
2018-08-30T08:54:57.625Z,9.43
2018-08-30T08:57:26.622Z,9.97
2018-08-30T08:59:55.557Z,9.97
2018-08-30T09:02:24.534Z,9.43
2018-08-30T09:04:53.332Z,10.80
2018-08-30T09:07:22.276Z,9.70
2018-08-30T09:09:51.002Z,8.87
2018-08-30T09:12:19.695Z,9.60
2018-08-30T09:14:48.502Z,9.13
2018-08-30T09:17:17.214Z,9.27
2018-08-30T09:19:46.287Z,9.40
2018-08-30T09:22:15.128Z,9.47
2018-08-30T09:24:44.053Z,9.63
2018-08-30T09:27:13.111Z,9.07
2018-08-30T09:29:41.909Z,9.93
2018-08-30T09:32:10.682Z,10.07
2018-08-30T09:34:39.552Z,10.37
2018-08-30T09:37:08.262Z,10.07
2018-08-30T09:39:37.177Z,9.53
2018-08-30T09:42:05.966Z,9.43
2018-08-30T09:44:34.787Z,9.87
2018-08-30T09:47:03.798Z,9.83
2018-08-30T09:49:32.532Z,9.03
2018-08-30T09:52:01.305Z,8.30
2018-08-30T09:54:30.055Z,8.37
2018-08-30T09:56:58.911Z,8.27
2018-08-30T09:59:27.686Z,8.10
2018-08-30T10:02:01.505Z,7.27
2018-08-30T10:04:30.520Z,7.70
2018-08-30T10:06:59.641Z,7.70
2018-08-30T10:09:28.610Z,8.00
2018-08-30T10:11:57.346Z,8.07
2018-08-30T10:14:26.298Z,7.47
2018-08-30T10:16:55.074Z,8.47
2018-08-30T10:19:26.930Z,11.20
2018-08-30T10:21:58.385Z,9.67
2018-08-30T10:24:33.391Z,10.27
2018-08-30T10:27:02.286Z,10.17
2018-08-30T10:29:37.651Z,9.87
2018-08-30T10:32:06.570Z,9.80
2018-08-30T10:34:35.430Z,9.77
2018-08-30T10:37:04.429Z,9.50
2018-08-30T10:39:34.509Z,8.96
2018-08-30T10:42:08.426Z,9.40
2018-08-30T10:44:39.284Z,8.80
2018-08-30T10:47:08.175Z,9.17
2018-08-30T10:49:37.179Z,9.70
2018-08-30T10:52:16.852Z,9.57
2018-08-30T10:54:45.678Z,9.87
2018-08-30T10:57:14.641Z,10.40
2018-08-30T10:59:43.850Z,10.33
2018-08-30T11:02:12.721Z,9.60
2018-08-30T11:04:43.502Z,10.40
2018-08-30T11:07:12.171Z,10.50
2018-08-30T11:09:42.086Z,9.73
2018-08-30T11:12:11.136Z,9.40
2018-08-30T11:14:40.111Z,9.03
2018-08-30T11:17:09.127Z,9.10
2018-08-30T11:19:37.934Z,9.37
2018-08-30T11:22:07.123Z,10.07
2018-08-30T11:24:35.993Z,10.53
2018-08-30T11:27:04.842Z,10.13
2018-08-30T11:29:33.633Z,9.03
2018-08-30T11:32:02.380Z,8.70
2018-08-30T11:34:32.219Z,8.63
2018-08-30T11:37:02.957Z,8.03
2018-08-30T11:39:31.688Z,8.50
2018-08-30T11:42:00.602Z,9.00
2018-08-30T11:44:29.425Z,9.23
2018-08-30T11:46:58.394Z,9.20
2018-08-30T11:49:27.311Z,9.43
2018-08-30T11:51:56.110Z,9.83
2018-08-30T11:54:25.094Z,9.87
2018-08-30T11:56:53.997Z,9.60
2018-08-30T11:59:22.754Z,10.03
2018-08-30T12:01:51.713Z,9.43
2018-08-30T12:04:20.509Z,9.83
2018-08-30T12:06:49.298Z,9.47
2018-08-30T12:09:18.124Z,11.00
2018-08-30T12:11:46.818Z,10.43
2018-08-30T12:14:15.706Z,10.63
2018-08-30T12:16:44.442Z,11.07
2018-08-30T12:19:13.218Z,10.97
2018-08-30T12:21:41.977Z,10.10
2018-08-30T12:24:10.743Z,10.83
2018-08-30T12:26:46.219Z,9.73
2018-08-30T12:29:15.112Z,10.00
2018-08-30T12:31:43.892Z,9.10
2018-08-30T12:34:12.690Z,8.77
2018-08-30T12:36:41.386Z,9.20
2018-08-30T12:39:12.251Z,8.47
2018-08-30T12:41:41.334Z,8.90
2018-08-30T12:44:10.507Z,10.20
2018-08-30T12:46:39.323Z,8.67
2018-08-30T12:49:08.016Z,8.60
2018-08-30T12:51:36.941Z,8.60
2018-08-30T12:54:05.665Z,8.70
2018-08-30T12:56:34.691Z,8.40
2018-08-30T12:59:08.738Z,8.30
2018-08-30T13:01:38.843Z,9.07
2018-08-30T13:04:25.394Z,8.00
2018-08-30T13:06:57.455Z,7.67
2018-08-30T13:09:27.641Z,6.00
2018-08-30T13:11:58.158Z,6.20
2018-08-30T13:14:27.521Z,5.60
2018-08-30T13:17:02.708Z,5.67
2018-08-30T13:19:31.721Z,4.03
2018-08-30T13:22:00.599Z,4.07
2018-08-30T13:24:29.246Z,3.77
2018-08-30T13:26:58.003Z,4.03
2018-08-30T13:29:26.675Z,4.30
2018-08-30T13:31:55.725Z,3.67
2018-08-30T13:34:25.632Z,4.87
2018-08-30T13:36:54.216Z,4.20
2018-08-30T13:39:23.225Z,4.57
2018-08-30T13:41:52.022Z,4.17
2018-08-30T13:44:20.650Z,4.70
2018-08-30T13:46:54.429Z,5.70
2018-08-30T13:49:23.174Z,5.13
2018-08-30T13:51:52.317Z,5.53
2018-08-30T13:54:20.789Z,6.50
2018-08-30T13:56:49.684Z,6.10
2018-08-30T13:59:18.543Z,6.13
2018-08-30T14:01:47.375Z,6.23
2018-08-30T14:04:15.874Z,6.50
2018-08-30T14:06:44.778Z,6.80
2018-08-30T14:09:13.604Z,6.93
2018-08-30T14:11:42.811Z,6.00
2018-08-30T14:14:11.518Z,6.93
2018-08-30T14:16:39.844Z,5.60
2018-08-30T14:19:10.853Z,5.27
2018-08-30T14:21:39.542Z,5.30
2018-08-30T14:24:08.359Z,4.73
2018-08-30T14:26:37.464Z,5.20
2018-08-30T14:29:06.501Z,5.13
2018-08-30T14:31:35.265Z,5.90
2018-08-30T14:34:04.173Z,5.10
2018-08-30T14:36:33.047Z,5.60
2018-08-30T14:39:01.706Z,5.80
2018-08-30T14:41:30.919Z,5.60
2018-08-30T14:43:59.518Z,5.47
2018-08-30T14:46:28.169Z,5.20
2018-08-30T14:48:56.842Z,5.50
2018-08-30T14:51:25.838Z,4.93
2018-08-30T14:53:54.819Z,5.93
2018-08-30T14:56:23.466Z,5.40
2018-08-30T14:58:52.527Z,5.27
2018-08-30T15:01:21.395Z,4.77
2018-08-30T15:03:50.033Z,4.73
2018-08-30T15:06:18.949Z,4.07
2018-08-30T15:08:47.573Z,4.30
2018-08-30T15:11:16.463Z,4.43
2018-08-30T15:13:45.270Z,4.57
2018-08-30T15:16:25.355Z,4.60
2018-08-30T15:18:54.216Z,4.30
2018-08-30T15:21:22.894Z,4.43
2018-08-30T15:23:51.699Z,4.23
2018-08-30T15:26:21.428Z,4.20
2018-08-30T15:28:51.388Z,4.60
2018-08-30T15:31:20.395Z,4.20
2018-08-30T15:33:49.145Z,4.37
2018-08-30T15:36:17.839Z,3.80
2018-08-30T15:38:57.945Z,4.00
2018-08-30T15:41:26.678Z,3.93
2018-08-30T15:43:55.317Z,4.30
2018-08-30T15:46:24.100Z,4.20
2018-08-30T15:48:52.989Z,4.13
2018-08-30T15:51:21.674Z,4.10
2018-08-30T15:53:50.377Z,4.10
2018-08-30T15:56:29.850Z,4.17
2018-08-30T15:58:58.670Z,3.53
2018-08-30T16:01:27.560Z,3.43
2018-08-30T16:03:56.313Z,3.47
2018-08-30T16:06:25.091Z,3.27
2018-08-30T16:09:04.987Z,3.30
2018-08-30T16:11:33.714Z,3.37
2018-08-30T16:14:02.383Z,3.27
2018-08-30T16:16:31.268Z,3.57
2018-08-30T16:19:00.134Z,3.20
2018-08-30T16:21:29.049Z,3.57
2018-08-30T16:23:57.714Z,3.17
2018-08-30T16:26:40.852Z,2.70
2018-08-30T16:29:09.910Z,2.90
2018-08-30T16:31:38.674Z,3.10
2018-08-30T16:34:07.374Z,2.67
2018-08-30T16:36:36.466Z,2.47
2018-08-30T16:39:07.820Z,2.60
2018-08-30T16:41:40.978Z,2.40
2018-08-30T16:44:09.869Z,2.30
2018-08-30T16:46:38.976Z,2.63
2018-08-30T16:49:08.199Z,2.07
2018-08-30T16:51:36.942Z,2.30
2018-08-30T16:54:05.937Z,2.50
2018-08-30T16:56:34.674Z,2.53
2018-08-30T16:59:03.483Z,2.50
2018-08-30T17:01:39.098Z,2.33
2018-08-30T17:04:08.015Z,2.37
2018-08-30T17:06:37.257Z,2.30
2018-08-30T17:09:08.606Z,2.37
2018-08-30T17:11:37.654Z,2.07
2018-08-30T17:14:06.430Z,2.50
2018-08-30T17:16:35.101Z,2.17
2018-08-30T17:19:13.326Z,2.20
2018-08-30T17:21:42.066Z,2.37
2018-08-30T17:24:10.737Z,1.90
2018-08-30T17:26:39.693Z,2.10
2018-08-30T17:29:14.370Z,2.13
2018-08-30T17:31:43.111Z,2.57
2018-08-30T17:34:11.925Z,2.00
2018-08-30T17:36:40.738Z,1.97
2018-08-30T17:39:10.734Z,1.97
2018-08-30T17:41:39.577Z,2.13
2018-08-30T17:44:08.937Z,3.40
2018-08-30T17:46:38.111Z,2.63
2018-08-30T17:49:06.903Z,2.37
2018-08-30T17:51:35.701Z,2.03
2018-08-30T17:54:04.669Z,2.20
2018-08-30T17:56:33.441Z,2.00
2018-08-30T17:59:02.152Z,1.90
2018-08-30T18:01:31.192Z,2.10
2018-08-30T18:04:00.166Z,1.90
2018-08-30T18:06:28.961Z,1.77
2018-08-30T18:08:57.870Z,1.70
2018-08-30T18:11:27.201Z,1.80
2018-08-30T18:14:02.558Z,1.83
2018-08-30T18:16:35.673Z,1.87
2018-08-30T18:19:11.037Z,1.73
2018-08-30T18:21:46.061Z,1.63
2018-08-30T18:24:14.925Z,1.63
2018-08-30T18:26:51.349Z,1.40
2018-08-30T18:29:26.248Z,2.23
2018-08-30T18:31:55.335Z,1.60
2018-08-30T18:34:31.220Z,1.80
2018-08-30T18:37:04.880Z,2.00
2018-08-30T18:39:35.149Z,1.50
2018-08-30T18:42:04.573Z,1.70
2018-08-30T18:44:35.535Z,1.80
2018-08-30T18:47:04.288Z,2.00
2018-08-30T18:49:33.116Z,2.07
2018-08-30T18:52:01.962Z,1.67
2018-08-30T18:54:30.937Z,1.83
2018-08-30T18:57:06.658Z,1.83
2018-08-30T18:59:35.445Z,2.00
2018-08-30T19:02:11.189Z,1.63
2018-08-30T19:04:40.192Z,1.87
2018-08-30T19:07:09.620Z,1.80
2018-08-30T19:09:45.415Z,1.60
2018-08-30T19:12:14.703Z,1.80
2018-08-30T19:14:44.246Z,1.67
2018-08-30T19:17:18.671Z,1.90
2018-08-30T19:19:47.998Z,1.60
2018-08-30T19:22:17.725Z,3.23
2018-08-30T19:24:52.769Z,1.93
2018-08-30T19:27:22.677Z,1.70
2018-08-30T19:29:57.047Z,1.63
2018-08-30T19:32:26.097Z,1.70
2018-08-30T19:35:06.469Z,1.50
2018-08-30T19:37:35.188Z,1.73
2018-08-30T19:40:04.203Z,1.20
2018-08-30T19:42:33.089Z,1.37
2018-08-30T19:45:01.834Z,1.70
2018-08-30T19:47:30.614Z,1.47
2018-08-30T19:49:59.431Z,1.23
2018-08-30T19:52:28.419Z,1.53
2018-08-30T19:55:03.620Z,1.50
2018-08-30T19:57:32.465Z,1.20
2018-08-30T20:00:01.357Z,1.37
2018-08-30T20:02:32.576Z,1.40
2018-08-30T20:05:01.518Z,1.33
2018-08-30T20:07:38.172Z,1.40
2018-08-30T20:10:07.261Z,1.47
2018-08-30T20:12:36.297Z,1.20
2018-08-30T20:15:05.569Z,1.70
2018-08-30T20:17:34.250Z,1.60
2018-08-30T20:20:03.284Z,1.40
2018-08-30T20:22:32.345Z,1.67
2018-08-30T20:25:01.172Z,1.03
2018-08-30T20:27:29.947Z,1.17
2018-08-30T20:29:58.789Z,1.23
2018-08-30T20:32:27.541Z,1.40
2018-08-30T20:34:56.486Z,1.40
2018-08-30T20:37:25.341Z,1.40
2018-08-30T20:39:54.101Z,1.53
2018-08-30T20:42:22.953Z,1.40
2018-08-30T20:44:51.661Z,1.37
2018-08-30T20:47:20.697Z,1.37
2018-08-30T20:49:49.533Z,1.67
2018-08-30T20:52:18.265Z,1.40
2018-08-30T20:54:47.124Z,1.27
2018-08-30T20:57:18.101Z,1.50
2018-08-30T20:59:47.945Z,1.00
2018-08-30T21:02:16.889Z,1.30
2018-08-30T21:04:45.898Z,1.27
2018-08-30T21:07:14.813Z,1.47
2018-08-30T21:09:43.642Z,1.90
2018-08-30T21:12:12.428Z,1.60
2018-08-30T21:14:41.382Z,1.70
2018-08-30T21:17:10.077Z,1.53
2018-08-30T21:19:39.769Z,1.67
2018-08-30T21:22:08.674Z,1.50
2018-08-30T21:24:37.473Z,1.60
2018-08-30T21:27:06.345Z,1.50
2018-08-30T21:29:35.151Z,1.43
2018-08-30T21:32:04.164Z,1.30
2018-08-30T21:34:33.238Z,1.17
2018-08-30T21:37:06.910Z,1.50
2018-08-30T21:39:36.081Z,1.27
2018-08-30T21:42:04.905Z,1.60
2018-08-30T21:44:33.656Z,1.43
2018-08-30T21:47:02.530Z,1.50
2018-08-30T21:49:31.417Z,1.70
2018-08-30T21:52:00.414Z,1.30
2018-08-30T21:54:29.106Z,2.00
2018-08-30T21:56:58.066Z,1.87
2018-08-30T21:59:26.915Z,1.50
2018-08-30T22:01:55.711Z,1.73
2018-08-30T22:04:24.350Z,1.53
2018-08-30T22:06:53.297Z,1.70
2018-08-30T22:09:22.021Z,1.63
2018-08-30T22:11:50.819Z,1.73
2018-08-30T22:14:19.537Z,2.20
2018-08-30T22:16:48.402Z,1.90
2018-08-30T22:19:17.161Z,1.63
2018-08-30T22:21:45.905Z,1.73
2018-08-30T22:24:14.721Z,1.90
2018-08-30T22:26:43.797Z,1.43
2018-08-30T22:29:12.605Z,2.17
2018-08-30T22:31:41.485Z,1.20
2018-08-30T22:34:10.198Z,1.57
2018-08-30T22:36:39.017Z,1.60
2018-08-30T22:39:08.180Z,1.83
2018-08-30T22:41:37.145Z,2.00
2018-08-30T22:44:06.037Z,1.90
2018-08-30T22:46:34.805Z,1.60
2018-08-30T22:49:03.529Z,1.70
2018-08-30T22:51:32.325Z,2.00
2018-08-30T22:54:01.302Z,1.63
2018-08-30T22:56:30.142Z,2.00
2018-08-30T22:59:03.293Z,1.67
2018-08-30T23:01:32.015Z,1.97
2018-08-30T23:04:00.798Z,1.80
2018-08-30T23:06:29.526Z,2.13
2018-08-30T23:08:58.334Z,1.90
2018-08-30T23:11:27.162Z,1.40
2018-08-30T23:13:56.102Z,1.70
2018-08-30T23:16:25.017Z,2.07
2018-08-30T23:18:53.827Z,1.80
2018-08-30T23:21:22.545Z,1.70
2018-08-30T23:23:51.301Z,1.80
2018-08-30T23:26:20.049Z,1.33
2018-08-30T23:28:48.901Z,1.80
2018-08-30T23:31:17.690Z,1.83
2018-08-30T23:33:46.557Z,1.80
2018-08-30T23:36:15.341Z,1.67
2018-08-30T23:38:44.402Z,1.70
2018-08-30T23:41:13.305Z,2.00
2018-08-30T23:43:42.061Z,1.60
2018-08-30T23:46:11.005Z,2.10
2018-08-30T23:48:55.416Z,2.10
2018-08-30T23:51:24.341Z,1.90
2018-08-30T23:54:05.605Z,1.80
2018-08-30T23:56:34.361Z,1.77
2018-08-30T23:59:14.679Z,1.80
